Time;durP1;ratioP1;P1;durP2;ratioP2;P2;SDS_P1;SDS_P2;PMS_P1;PMS_P2;Temp;Humidity;BMP_temperature;BMP_pressure;BME280_temperature;BME280_humidity;BME280_pressure;Samples;Min_cycle;Max_cycle;Signal;HPM_P1;HPM_P2
2024/04/16 00:00:12;;;;;;;7.72;2.53;;;;;;;8.63;100.00;100116.16;11062123;26;20000;-69
2024/04/16 00:05:13;;;;;;;19.52;3.13;;;;;;;8.49;100.00;100117.19;11061634;26;19997;-69
2024/04/16 00:10:13;;;;;;;2.63;2.38;;;;;;;8.00;100.00;100089.34;11060262;26;20005;-69
2024/04/16 00:15:14;;;;;;;9.65;2.58;;;;;;;7.67;100.00;100108.88;11059140;26;20066;-69
2024/04/16 00:20:15;;;;;;;4.78;3.53;;;;;;;7.50;100.00;100090.50;11058111;26;20073;-69
2024/04/16 00:25:15;;;;;;;12.75;3.05;;;;;;;7.23;100.00;100098.41;11061602;26;20005;-69
2024/04/16 00:30:16;;;;;;;2.50;2.25;;;;;;;6.78;100.00;100094.31;11060078;26;20452;-68
2024/04/16 00:35:16;;;;;;;0.60;0.60;;;;;;;6.22;100.00;100054.63;11060077;26;20000;-70
2024/04/16 00:40:17;;;;;;;0.52;0.52;;;;;;;6.24;100.00;100063.34;11057152;26;20005;-71
2024/04/16 00:45:17;;;;;;;0.47;0.47;;;;;;;6.24;100.00;100041.81;11058344;26;20008;-71
2024/04/16 00:50:18;;;;;;;0.60;0.60;;;;;;;6.40;100.00;100040.75;11061836;26;20005;-71
2024/04/16 00:55:18;;;;;;;0.55;0.55;;;;;;;6.41;100.00;100028.97;11064555;26;20000;-71
2024/04/16 01:00:18;;;;;;;0.60;0.60;;;;;;;6.41;100.00;100029.78;11064002;26;20012;-71
2024/04/16 01:05:19;;;;;;;0.50;0.50;;;;;;;6.44;100.00;100021.34;11065726;26;20044;-71
2024/04/16 01:10:19;;;;;;;0.50;0.50;;;;;;;6.61;100.00;100021.09;11065189;26;20473;-71
2024/04/16 01:15:19;;;;;;;0.50;0.50;;;;;;;6.62;100.00;100085.47;11064977;26;20004;-69
2024/04/16 01:20:20;;;;;;;0.57;0.57;;;;;;;5.92;100.00;100070.78;11065144;26;19997;-70
2024/04/16 01:25:20;;;;;;;0.50;0.50;;;;;;;5.59;100.00;100075.72;11063702;26;20007;-69
2024/04/16 01:30:21;;;;;;;0.68;0.68;;;;;;;5.56;100.00;100078.78;11064290;26;20020;-68
2024/04/16 01:35:21;;;;;;;0.63;0.63;;;;;;;5.56;100.00;100081.47;11064336;26;20021;-68
2024/04/16 01:40:22;;;;;;;0.57;0.57;;;;;;;5.40;100.00;100047.56;11065335;26;20061;-68
2024/04/16 01:45:22;;;;;;;0.95;0.93;;;;;;;5.44;100.00;100048.03;11062073;26;20008;-69
2024/04/16 01:50:23;;;;;;;3.08;1.95;;;;;;;5.51;100.00;100059.69;11064090;26;20013;-68
2024/04/16 01:55:23;;;;;;;0.60;0.60;;;;;;;5.39;100.00;100047.75;11033899;26;20074;-69
2024/04/16 02:00:23;;;;;;;0.50;0.50;;;;;;;5.41;100.00;100014.31;11062509;26;20001;-70
2024/04/16 02:05:24;;;;;;;0.98;0.98;;;;;;;5.39;100.00;100012.84;11064044;26;19996;-69
2024/04/16 02:10:24;;;;;;;0.60;0.60;;;;;;;5.40;100.00;100001.09;11063939;26;20502;-69
2024/04/16 02:15:25;;;;;;;0.45;0.45;;;;;;;5.45;100.00;99996.00;11061881;26;20344;-70
2024/04/16 02:20:25;;;;;;;0.50;0.50;;;;;;;5.63;100.00;99976.81;11063867;26;20011;-70
2024/04/16 02:25:25;;;;;;;0.50;0.50;;;;;;;5.88;100.00;99974.63;11061108;26;20416;-70
2024/04/16 02:30:26;;;;;;;0.57;0.57;;;;;;;6.02;100.00;99971.91;11063499;26;20004;-70
2024/04/16 02:35:26;;;;;;;0.70;0.70;;;;;;;6.09;100.00;99947.78;11063926;26;20028;-70
2024/04/16 02:40:27;;;;;;;1.63;1.60;;;;;;;6.18;100.00;99960.06;11063460;26;20469;-70
2024/04/16 02:45:27;;;;;;;0.60;0.60;;;;;;;6.23;100.00;99952.28;11063575;26;20032;-70
2024/04/16 02:50:28;;;;;;;0.60;0.60;;;;;;;6.21;100.00;99938.19;11062751;26;20113;-70
2024/04/16 02:55:28;;;;;;;0.50;0.50;;;;;;;6.36;100.00;99937.28;11060945;26;19993;-70
2024/04/16 03:00:30;;;;;;;1.85;1.75;;;;;;;6.42;100.00;99915.84;11062414;26;20092;-70
2024/04/16 03:05:31;;;;;;;0.50;0.50;;;;;;;6.58;100.00;99919.28;11061997;26;20001;-70
2024/04/16 03:10:31;;;;;;;0.50;0.50;;;;;;;6.64;100.00;99899.66;11062231;26;20024;-70
2024/04/16 03:15:32;;;;;;;0.60;0.60;;;;;;;6.74;100.00;99909.03;11061534;26;20011;-70
2024/04/16 03:20:32;;;;;;;0.50;0.50;;;;;;;6.68;100.00;99925.97;11061694;26;20326;-70
2024/04/16 03:25:39;;;;;;;0.40;0.40;;;;;;;6.39;100.00;99891.19;11061485;26;20456;-70
2024/04/16 03:30:40;;;;;;;0.40;0.40;;;;;;;6.27;100.00;99899.78;11058804;26;20008;-69
2024/04/16 03:35:40;;;;;;;0.50;0.50;;;;;;;6.29;100.00;99905.81;11060118;26;20016;-69
2024/04/16 03:40:40;;;;;;;0.57;0.57;;;;;;;6.26;100.00;99906.19;11061696;26;20009;-70
2024/04/16 03:45:41;;;;;;;0.60;0.60;;;;;;;6.13;100.00;99903.38;11058914;26;20071;-69
2024/04/16 03:50:41;;;;;;;0.60;0.60;;;;;;;6.01;100.00;99896.88;11060559;26;20013;-69
2024/04/16 03:55:42;;;;;;;0.60;0.60;;;;;;;5.85;100.00;99876.44;11061061;26;20016;-68
2024/04/16 04:01:03;;;;;;;0.70;0.70;;;;;;;5.88;100.00;99856.41;11061314;26;20414;-69
2024/04/16 04:06:03;;;;;;;0.60;0.60;;;;;;;5.95;100.00;99878.81;11058381;26;19993;-69
2024/04/16 04:11:04;;;;;;;0.60;0.60;;;;;;;5.99;100.00;99853.22;11058042;26;20012;-69
2024/04/16 04:16:04;;;;;;;0.60;0.60;;;;;;;6.02;100.00;99844.78;11060200;26;20001;-69
2024/04/16 04:21:05;;;;;;;43.47;5.47;;;;;;;6.04;100.00;99829.28;11060416;26;20001;-69
2024/04/16 04:26:06;;;;;;;0.60;0.60;;;;;;;6.17;100.00;99842.84;11062141;26;20011;-69
2024/04/16 04:31:16;;;;;;;0.50;0.50;;;;;;;6.37;100.00;99844.84;11066268;26;20013;-69
2024/04/16 04:36:17;;;;;;;0.40;0.40;;;;;;;6.62;100.00;99829.91;11064106;26;20008;-69
2024/04/16 04:41:17;;;;;;;0.60;0.60;;;;;;;6.87;100.00;99824.88;11065048;26;20438;-70
2024/04/16 04:46:18;;;;;;;1.88;1.83;;;;;;;7.03;100.00;99825.56;11065272;26;20318;-72
2024/04/16 04:51:18;;;;;;;0.50;0.50;;;;;;;7.12;100.00;99827.88;11063208;26;20043;-71
2024/04/16 04:56:19;;;;;;;0.40;0.40;;;;;;;7.18;100.00;99839.72;11064884;26;20096;-71
2024/04/16 05:01:19;;;;;;;0.95;0.95;;;;;;;7.22;100.00;99857.13;11065678;26;19997;-72
2024/04/16 05:06:19;;;;;;;2.50;1.95;;;;;;;7.36;100.00;99866.06;11065685;26;20000;-72
2024/04/16 05:11:20;;;;;;;1.80;1.73;;;;;;;7.41;100.00;99877.06;11066726;26;20029;-70
2024/04/16 05:16:20;;;;;;;0.73;0.73;;;;;;;7.46;100.00;99890.75;11064989;26;20011;-71
2024/04/16 05:21:21;;;;;;;1.13;1.13;;;;;;;7.43;100.00;99891.16;11065137;26;20069;-71
2024/04/16 05:26:24;;;;;;;0.45;0.45;;;;;;;7.42;100.00;99905.66;10976716;26;20001;-71
2024/04/16 05:31:25;;;;;;;0.40;0.40;;;;;;;7.37;100.00;99925.13;11062995;26;20008;-70
2024/04/16 05:36:25;;;;;;;0.80;0.80;;;;;;;7.46;100.00;99914.97;11063115;26;20048;-70
2024/04/16 05:41:25;;;;;;;1.17;1.17;;;;;;;7.57;100.00;99937.84;11062981;26;20008;-70
2024/04/16 05:46:26;;;;;;;0.43;0.43;;;;;;;7.69;100.00;99949.72;11063455;26;20380;-70
2024/04/16 05:51:26;;;;;;;0.80;0.80;;;;;;;7.73;100.00;99960.91;11060973;26;20073;-71
2024/04/16 05:56:27;;;;;;;2.22;2.15;;;;;;;7.73;100.00;99952.81;11061673;26;20326;-71
2024/04/16 06:01:27;;;;;;;0.50;0.50;;;;;;;7.80;100.00;99967.97;11063755;26;20004;-71
2024/04/16 06:06:27;;;;;;;2.22;2.13;;;;;;;7.93;100.00;99972.56;11091623;26;20039;-71
2024/04/16 06:11:29;;;;;;;0.50;0.50;;;;;;;8.76;100.00;99972.28;11063123;26;20066;-71
2024/04/16 06:16:30;;;;;;;0.50;0.50;;;;;;;8.78;100.00;99979.16;11064003;26;19993;-71
2024/04/16 06:21:30;;;;;;;4.57;3.90;;;;;;;8.84;100.00;99975.63;11063890;26;20028;-71
2024/04/16 06:26:31;;;;;;;0.93;0.93;;;;;;;8.52;100.00;99996.16;11063815;26;20007;-72
2024/04/16 06:31:32;;;;;;;32.75;7.55;;;;;;;8.27;100.00;99998.59;11063078;26;20432;-70
2024/04/16 06:36:32;;;;;;;1.60;1.60;;;;;;;8.24;100.00;100022.44;11063109;26;19989;-70
2024/04/16 06:41:33;;;;;;;1.20;1.20;;;;;;;8.27;100.00;100019.34;11032345;26;19993;-71
2024/04/16 06:46:33;;;;;;;0.82;0.82;;;;;;;8.43;100.00;100035.19;11061983;26;20004;-70
2024/04/16 06:51:33;;;;;;;0.55;0.55;;;;;;;10.27;100.00;100042.34;11062348;26;20028;-70
2024/04/16 06:56:34;;;;;;;0.50;0.50;;;;;;;9.91;100.00;100057.25;11063057;26;20124;-70
2024/04/16 07:01:34;;;;;;;0.43;0.43;;;;;;;9.44;100.00;100053.84;11061728;26;20071;-71
2024/04/16 07:06:35;;;;;;;0.50;0.50;;;;;;;9.51;100.00;100068.19;11061691;26;20003;-71
2024/04/16 07:11:35;;;;;;;1.38;1.38;;;;;;;9.24;100.00;100082.78;11061429;26;20001;-71
2024/04/16 07:16:35;;;;;;;0.45;0.45;;;;;;;9.45;100.00;100071.75;11061697;26;20032;-71
2024/04/16 07:21:36;;;;;;;2.88;2.65;;;;;;;9.71;100.00;100081.66;11061248;26;19993;-71
2024/04/16 07:26:36;;;;;;;0.45;0.45;;;;;;;9.41;100.00;100083.16;11061962;26;20317;-71
2024/04/16 07:31:37;;;;;;;0.40;0.40;;;;;;;11.39;100.00;100078.63;11060511;26;20004;-72
2024/04/16 07:36:39;;;;;;;0.32;0.32;;;;;;;11.02;100.00;100095.81;11063260;26;20366;-71
2024/04/16 07:41:39;;;;;;;0.30;0.30;;;;;;;10.21;100.00;100097.28;11062439;26;20068;-70
2024/04/16 07:46:39;;;;;;;0.57;0.57;;;;;;;9.71;100.00;100116.81;11061275;26;19993;-70
2024/04/16 07:51:40;;;;;;;0.40;0.40;;;;;;;9.56;100.00;100113.50;11058039;26;19993;-70
2024/04/16 07:56:40;;;;;;;0.40;0.40;;;;;;;9.40;100.00;100127.44;11059026;26;20016;-70
2024/04/16 08:01:41;;;;;;;0.30;0.30;;;;;;;9.30;100.00;100133.28;11065119;26;19993;-69
2024/04/16 08:06:41;;;;;;;0.40;0.40;;;;;;;9.59;100.00;100150.09;11063620;26;20021;-70
2024/04/16 08:11:41;;;;;;;0.50;0.50;;;;;;;9.50;100.00;100152.19;11065650;26;20314;-70
2024/04/16 08:16:43;;;;;;;0.47;0.47;;;;;;;9.24;100.00;100170.06;11065505;26;19997;-71
2024/04/16 08:21:43;;;;;;;0.40;0.40;;;;;;;9.80;100.00;100163.38;11063257;26;20116;-71
2024/04/16 08:26:43;;;;;;;0.88;0.88;;;;;;;10.02;100.00;100159.38;11064791;26;20479;-71
2024/04/16 08:31:44;;;;;;;0.50;0.50;;;;;;;9.94;100.00;100183.13;11063205;26;20012;-70
2024/04/16 08:36:44;;;;;;;0.40;0.40;;;;;;;9.72;100.00;100204.16;11065140;26;20429;-71
2024/04/16 08:41:45;;;;;;;0.30;0.30;;;;;;;9.53;100.00;100201.25;11065439;26;20313;-70
2024/04/16 08:46:45;;;;;;;1.58;1.58;;;;;;;9.59;100.00;100206.88;11062778;26;20099;-70
2024/04/16 08:51:45;;;;;;;0.70;0.70;;;;;;;9.62;100.00;100230.78;11005656;26;20004;-71
2024/04/16 08:56:46;;;;;;;0.68;0.68;;;;;;;9.54;100.00;100227.25;11064658;26;19992;-71
2024/04/16 09:01:48;;;;;;;0.40;0.40;;;;;;;9.70;100.00;100244.06;11034998;26;20379;-71
2024/04/16 09:06:48;;;;;;;0.40;0.40;;;;;;;9.76;100.00;100249.50;11064057;26;20587;-71
2024/04/16 09:11:49;;;;;;;0.43;0.43;;;;;;;9.69;100.00;100286.50;11062880;26;20003;-71
2024/04/16 09:16:49;;;;;;;0.77;0.77;;;;;;;9.33;100.00;100281.47;11064793;26;19993;-72
2024/04/16 09:21:49;;;;;;;18.65;2.15;;;;;;;9.13;100.00;100284.13;11065526;26;20011;-71
2024/04/16 09:26:50;;;;;;;0.50;0.50;;;;;;;9.54;100.00;100294.81;11064466;26;20028;-71
2024/04/16 09:32:00;;;;;;;2.60;2.45;;;;;;;10.42;100.00;100312.72;11062596;26;20353;-71
2024/04/16 09:37:00;;;;;;;0.43;0.43;;;;;;;11.02;100.00;100318.81;11092007;26;20005;-71
2024/04/16 09:42:01;;;;;;;0.50;0.50;;;;;;;10.22;100.00;100326.25;11063527;26;20000;-71
2024/04/16 09:47:02;;;;;;;0.80;0.80;;;;;;;10.32;100.00;100336.69;11033008;26;20004;-71
2024/04/16 09:52:02;;;;;;;0.55;0.55;;;;;;;10.46;100.00;100335.63;11062745;26;20425;-71
2024/04/16 09:57:03;;;;;;;0.40;0.40;;;;;;;10.47;100.00;100348.97;11061415;26;20136;-71
2024/04/16 10:02:03;;;;;;;0.60;0.60;;;;;;;10.27;100.00;100344.59;11032186;26;20013;-71
2024/04/16 10:07:05;;;;;;;2.92;2.70;;;;;;;10.38;100.00;100361.03;11061260;26;19997;-71
2024/04/16 10:12:06;;;;;;;0.40;0.40;;;;;;;10.75;100.00;100366.81;11063711;26;20003;-71
2024/04/16 10:17:14;;;;;;;2.55;2.45;;;;;;;10.78;100.00;100379.91;11064533;26;20428;-71
2024/04/16 10:22:14;;;;;;;1.15;1.15;;;;;;;10.88;100.00;100377.63;11033034;26;20005;-71
2024/04/16 10:27:14;;;;;;;0.50;0.50;;;;;;;10.54;100.00;100392.25;11060518;26;20365;-71
2024/04/16 10:32:19;;;;;;;4.40;1.52;;;;;;;10.76;100.00;100387.44;11060456;26;20019;-72
2024/04/16 10:37:19;;;;;;;0.30;0.30;;;;;;;10.64;100.00;100408.91;11062398;26;20008;-71
2024/04/16 10:42:20;;;;;;;1.05;1.05;;;;;;;10.65;100.00;100399.72;11062400;26;20294;-72
2024/04/16 10:47:20;;;;;;;0.57;0.57;;;;;;;11.10;100.00;100405.28;11060255;26;19997;-72
2024/04/16 10:52:22;;;;;;;2.90;1.27;;;;;;;10.68;100.00;100404.72;11030668;26;20409;-72
2024/04/16 10:57:23;;;;;;;0.38;0.38;;;;;;;10.22;100.00;100419.09;11031443;26;20433;-72
2024/04/16 11:02:23;;;;;;;0.70;0.70;;;;;;;10.37;100.00;100428.91;11059348;26;20001;-72
2024/04/16 11:07:24;;;;;;;0.77;0.77;;;;;;;10.70;100.00;100440.56;11059789;26;20032;-72
2024/04/16 11:12:24;;;;;;;0.40;0.40;;;;;;;11.02;100.00;100448.03;11062058;26;20089;-72
2024/04/16 11:17:28;;;;;;;0.70;0.70;;;;;;;11.27;100.00;100456.31;11059213;26;20001;-72
2024/04/16 11:22:28;;;;;;;17.00;3.42;;;;;;;11.18;100.00;100458.41;11060886;26;20000;-72
2024/04/16 11:27:29;;;;;;;0.45;0.45;;;;;;;10.78;100.00;100473.88;11059191;26;20440;-73
2024/04/16 11:32:31;;;;;;;0.60;0.60;;;;;;;10.98;100.00;100474.72;11060134;26;20004;-73
2024/04/16 11:37:31;;;;;;;0.40;0.40;;;;;;;10.94;100.00;100487.84;11061120;26;20009;-72
2024/04/16 11:42:32;;;;;;;0.32;0.32;;;;;;;10.93;100.00;100504.31;11058285;26;20012;-72
2024/04/16 11:47:32;;;;;;;0.35;0.35;;;;;;;11.02;100.00;100494.91;11060099;26;20459;-72
2024/04/16 11:52:33;;;;;;;0.30;0.30;;;;;;;10.79;100.00;100514.31;11059178;26;20407;-72
2024/04/16 11:57:33;;;;;;;0.40;0.40;;;;;;;11.08;100.00;100517.63;11060735;26;19996;-72
2024/04/16 12:02:36;;;;;;;0.30;0.30;;;;;;;11.28;100.00;100534.69;11060086;26;20128;-72
2024/04/16 12:07:36;;;;;;;0.45;0.45;;;;;;;10.92;100.00;100527.03;11029494;26;20071;-72
2024/04/16 12:12:37;;;;;;;0.38;0.38;;;;;;;10.68;100.00;100534.72;11058994;26;20044;-72
2024/04/16 12:17:37;;;;;;;0.30;0.30;;;;;;;10.52;100.00;100540.53;11059003;26;20004;-72
2024/04/16 12:22:37;;;;;;;1.40;1.13;;;;;;;10.44;100.00;100544.28;11059056;26;19993;-72
2024/04/16 12:27:38;;;;;;;0.77;0.77;;;;;;;10.43;100.00;100560.72;11028191;26;20037;-72
2024/04/16 12:32:38;;;;;;;4.57;3.13;;;;;;;10.21;100.00;100565.41;11056132;26;20004;-72
2024/04/16 12:37:39;;;;;;;0.40;0.40;;;;;;;10.29;100.00;100569.84;11058113;26;20409;-72
2024/04/16 12:42:39;;;;;;;0.40;0.40;;;;;;;10.19;100.00;100579.16;11058868;26;20008;-72
2024/04/16 12:47:39;;;;;;;1.05;1.05;;;;;;;10.22;100.00;100586.88;11063811;26;20128;-72
2024/04/16 12:52:41;;;;;;;5.40;3.25;;;;;;;10.33;100.00;100587.34;11064942;26;19997;-72
2024/04/16 12:57:41;;;;;;;0.40;0.40;;;;;;;10.42;100.00;100608.59;11063956;26;20117;-72
2024/04/16 13:02:42;;;;;;;0.45;0.45;;;;;;;10.56;100.00;100601.38;11063007;26;20025;-71
2024/04/16 13:07:42;;;;;;;0.38;0.38;;;;;;;10.45;100.00;100605.50;11063647;26;20001;-71
2024/04/16 13:12:42;;;;;;;0.30;0.30;;;;;;;10.13;100.00;100617.00;11065002;26;20433;-71
2024/04/16 13:17:43;;;;;;;0.95;0.95;;;;;;;10.31;100.00;100633.56;11006200;26;19997;-71
2024/04/16 13:22:43;;;;;;;0.30;0.30;;;;;;;10.33;100.00;100623.34;11065647;26;20070;-70
2024/04/16 13:27:44;;;;;;;0.80;0.80;;;;;;;10.19;100.00;100621.63;11064804;26;20000;-70
2024/04/16 13:32:44;;;;;;;0.30;0.30;;;;;;;9.94;100.00;100635.63;11063038;26;20374;-71
2024/04/16 13:37:44;;;;;;;0.50;0.50;;;;;;;9.92;100.00;100637.72;11062709;26;20071;-70
2024/04/16 13:42:45;;;;;;;1.58;1.55;;;;;;;9.97;100.00;100651.47;11065462;26;20388;-70
2024/04/16 13:47:45;;;;;;;0.47;0.47;;;;;;;9.98;100.00;100650.44;11064606;26;20071;-72
2024/04/16 13:52:47;;;;;;;0.40;0.40;;;;;;;9.95;100.00;100664.34;11063165;26;19997;-72
2024/04/16 13:57:47;;;;;;;0.50;0.50;;;;;;;9.78;100.00;100668.41;11063845;26;19993;-71
2024/04/16 14:02:48;;;;;;;0.32;0.32;;;;;;;9.45;100.00;100674.44;11064381;26;20001;-72
2024/04/16 14:07:49;;;;;;;4.07;2.13;;;;;;;9.15;100.00;100686.41;11063797;26;20281;-72
2024/04/16 14:12:49;;;;;;;0.40;0.40;;;;;;;8.83;100.00;100700.22;11063187;26;20029;-70
2024/04/16 14:17:49;;;;;;;0.40;0.40;;;;;;;8.70;100.00;100700.06;11064113;26;20008;-70
2024/04/16 14:22:50;;;;;;;0.50;0.50;;;;;;;8.52;100.00;100705.91;11063100;26;20041;-69
2024/04/16 14:27:50;;;;;;;3.13;1.55;;;;;;;8.30;100.00;100717.63;11063001;26;20445;-70
2024/04/16 14:32:51;;;;;;;0.40;0.40;;;;;;;8.17;100.00;100723.66;11063699;26;20009;-70
2024/04/16 14:37:51;;;;;;;0.30;0.30;;;;;;;8.13;100.00;100728.56;11063446;26;20012;-70
2024/04/16 14:42:52;;;;;;;0.50;0.50;;;;;;;8.25;100.00;100731.66;11032417;26;19997;-70
2024/04/16 14:47:52;;;;;;;0.60;0.60;;;;;;;8.35;100.00;100734.06;11062221;26;19996;-70
2024/04/16 14:52:53;;;;;;;0.50;0.50;;;;;;;8.53;100.00;100739.13;11061813;26;20445;-70
2024/04/16 14:57:54;;;;;;;1.02;1.02;;;;;;;8.70;100.00;100739.72;11060638;26;20001;-71
2024/04/16 15:02:54;;;;;;;1.58;1.58;;;;;;;8.66;100.00;100750.06;11061722;26;20004;-71
2024/04/16 15:07:55;;;;;;;0.50;0.50;;;;;;;8.56;100.00;100758.47;11060448;26;20437;-70
2024/04/16 15:12:56;;;;;;;0.70;0.70;;;;;;;8.72;100.00;100764.69;11060845;26;20012;-70
2024/04/16 15:17:56;;;;;;;0.43;0.43;;;;;;;8.98;100.00;100759.59;11060678;26;20012;-70
2024/04/16 15:22:57;;;;;;;1.30;1.30;;;;;;;8.95;100.00;100762.66;11062365;26;20004;-71
2024/04/16 15:27:57;;;;;;;1.40;1.40;;;;;;;9.02;100.00;100765.44;11060444;26;20410;-70
2024/04/16 15:32:58;;;;;;;0.30;0.30;;;;;;;9.34;100.00;100777.63;11061851;26;20004;-71
2024/04/16 15:37:58;;;;;;;0.50;0.50;;;;;;;9.40;100.00;100768.75;11061487;26;20004;-71
2024/04/16 15:42:58;;;;;;;1.67;1.67;;;;;;;9.43;100.00;100781.88;11061042;26;20417;-71
2024/04/16 15:47:59;;;;;;;3.55;3.25;;;;;;;9.42;100.00;100785.63;11059346;26;20012;-71
2024/04/16 15:52:59;;;;;;;0.30;0.30;;;;;;;9.52;100.00;100788.84;11059423;26;20008;-71
2024/04/16 15:58:00;;;;;;;1.05;1.05;;;;;;;9.61;100.00;100799.53;11061781;26;20088;-71
2024/04/16 16:03:00;;;;;;;0.40;0.40;;;;;;;9.63;100.00;100806.41;11060530;26;20008;-70
2024/04/16 16:08:00;;;;;;;1.00;1.00;;;;;;;9.74;100.00;100813.16;11060562;26;20048;-70
2024/04/16 16:13:03;;;;;;;0.32;0.32;;;;;;;9.65;100.00;100815.16;11060093;26;20009;-70
2024/04/16 16:18:04;;;;;;;0.50;0.50;;;;;;;9.58;100.00;100818.84;11058405;26;20004;-70
2024/04/16 16:23:04;;;;;;;0.40;0.40;;;;;;;9.80;100.00;100828.63;11065854;26;20025;-70
2024/04/16 16:28:05;;;;;;;0.60;0.60;;;;;;;9.87;100.00;100828.69;11066626;26;20001;-69
2024/04/16 16:33:05;;;;;;;0.50;0.50;;;;;;;9.79;100.00;100829.63;11065355;26;19993;-70
2024/04/16 16:38:05;;;;;;;1.90;1.75;;;;;;;9.94;100.00;100837.69;11066324;26;20001;-69
2024/04/16 16:43:06;;;;;;;0.52;0.52;;;;;;;9.90;100.00;100839.94;11066464;26;20008;-69
2024/04/16 16:48:08;;;;;;;0.40;0.40;;;;;;;9.89;100.00;100849.09;11065867;26;19997;-70
2024/04/16 16:53:09;;;;;;;0.40;0.40;;;;;;;9.66;100.00;100859.25;11065753;26;20025;-70
2024/04/16 16:58:09;;;;;;;6.05;2.15;;;;;;;9.47;100.00;100855.31;11066454;26;20317;-71
2024/04/16 17:03:10;;;;;;;1.13;1.05;;;;;;;9.39;100.00;100880.59;11066685;26;20012;-70
2024/04/16 17:08:10;;;;;;;0.40;0.40;;;;;;;9.08;100.00;100876.25;11035409;26;20014;-70
2024/04/16 17:13:10;;;;;;;4.47;2.60;;;;;;;9.14;100.00;100881.97;11066277;26;20425;-70
2024/04/16 17:18:11;;;;;;;0.57;0.55;;;;;;;9.06;100.00;100881.03;11066089;26;20012;-70
2024/04/16 17:23:11;;;;;;;0.40;0.40;;;;;;;9.22;100.00;100896.22;11063755;26;20421;-70
2024/04/16 17:28:12;;;;;;;0.47;0.47;;;;;;;9.06;100.00;100902.66;11064663;26;20001;-70
2024/04/16 17:33:12;;;;;;;1.75;1.75;;;;;;;8.80;100.00;100904.97;11063747;26;20001;-70
2024/04/16 17:38:13;;;;;;;0.50;0.50;;;;;;;8.58;100.00;100910.28;11063065;26;20005;-70
2024/04/16 17:43:13;;;;;;;0.60;0.60;;;;;;;8.48;100.00;100920.47;11062801;26;20008;-70
2024/04/16 17:48:13;;;;;;;1.05;1.05;;;;;;;8.28;100.00;100920.13;11064746;26;20032;-70
2024/04/16 17:53:14;;;;;;;0.47;0.47;;;;;;;8.20;100.00;100933.69;11064862;26;20016;-69
2024/04/16 17:58:14;;;;;;;0.40;0.40;;;;;;;8.12;100.00;100939.16;11064708;26;20028;-69
2024/04/16 18:03:15;;;;;;;0.50;0.50;;;;;;;8.07;100.00;100945.09;11064766;26;20321;-69
2024/04/16 18:08:15;;;;;;;0.40;0.40;;;;;;;8.01;100.00;100962.00;11063747;26;20003;-70
2024/04/16 18:13:15;;;;;;;0.40;0.40;;;;;;;7.89;100.00;100964.25;11064918;26;20012;-69
2024/04/16 18:18:17;;;;;;;2.60;2.50;;;;;;;7.81;100.00;100982.31;11062928;26;20429;-69
2024/04/16 18:23:17;;;;;;;1.75;1.75;;;;;;;7.69;100.00;100988.13;11063439;26;20023;-69
2024/04/16 18:28:17;;;;;;;0.40;0.40;;;;;;;7.68;100.00;100988.28;11063570;26;20534;-69
2024/04/16 18:33:18;;;;;;;13.10;3.33;;;;;;;7.63;100.00;100998.78;11063444;26;20390;-69
2024/04/16 18:38:22;;;;;;;9.85;4.82;;;;;;;7.52;100.00;101002.69;11063383;26;19993;-69
2024/04/16 18:43:23;;;;;;;13.43;4.78;;;;;;;7.47;100.00;101018.56;11059501;26;20003;-69
2024/04/16 18:48:23;;;;;;;13.70;3.97;;;;;;;7.42;100.00;101031.69;11063120;26;20021;-69
2024/04/16 18:53:24;;;;;;;16.00;4.97;;;;;;;7.35;100.00;101046.88;11061761;26;20008;-67
2024/04/16 18:58:25;;;;;;;16.15;5.03;;;;;;;7.28;100.00;101051.28;11062160;26;19993;-70
2024/04/16 19:03:25;;;;;;;13.13;5.40;;;;;;;7.19;100.00;101062.06;11061741;26;19994;-69
2024/04/16 19:08:25;;;;;;;9.70;3.15;;;;;;;7.16;100.00;101059.72;11061519;26;20063;-69
2024/04/16 19:13:26;;;;;;;19.02;5.55;;;;;;;7.08;100.00;101070.47;11061548;26;20376;-68
2024/04/16 19:18:27;;;;;;;12.48;4.80;;;;;;;7.10;100.00;101075.72;11061258;26;20012;-68
2024/04/16 19:23:28;;;;;;;27.73;5.20;;;;;;;6.97;100.00;101082.44;11061305;26;19998;-68
2024/04/16 19:28:28;;;;;;;11.50;4.75;;;;;;;6.96;100.00;101094.25;11059934;26;20358;-68
2024/04/16 19:33:30;;;;;;;16.88;4.97;;;;;;;6.94;100.00;101087.34;11061325;26;19997;-67
2024/04/16 19:38:30;;;;;;;31.23;5.35;;;;;;;6.93;100.00;101096.44;11061174;26;19993;-67
2024/04/16 19:43:30;;;;;;;23.63;4.82;;;;;;;6.88;100.00;101099.63;11060896;26;19997;-68
2024/04/16 19:48:31;;;;;;;26.27;4.65;;;;;;;6.86;100.00;101107.03;11058818;26;20012;-68
2024/04/16 19:53:31;;;;;;;17.90;5.97;;;;;;;6.73;100.00;101110.22;11063758;26;20001;-68
2024/04/16 19:58:36;;;;;;;19.90;4.90;;;;;;;6.64;100.00;101116.59;11075987;26;19996;-69
2024/04/16 20:03:37;;;;;;;19.25;4.25;;;;;;;6.59;100.00;101116.25;11076124;26;20005;-68
2024/04/16 20:08:38;;;;;;;8.43;3.70;;;;;;;6.57;100.00;101115.56;11074286;26;20013;-69
2024/04/16 20:13:38;;;;;;;10.48;3.40;;;;;;;6.48;100.00;101128.19;11074223;26;20070;-69
2024/04/16 20:18:39;;;;;;;5.20;3.38;;;;;;;6.51;100.00;101135.09;11075974;26;20001;-69
2024/04/16 20:23:39;;;;;;;13.63;3.65;;;;;;;6.45;100.00;101130.38;11073717;26;19997;-69
2024/04/16 20:28:40;;;;;;;4.85;2.88;;;;;;;6.41;100.00;101139.75;11075376;26;19996;-69
2024/04/16 20:33:40;;;;;;;15.60;4.63;;;;;;;6.45;100.00;101139.28;11073716;26;19996;-69
2024/04/16 20:38:41;;;;;;;6.13;2.58;;;;;;;6.42;100.00;101146.84;11075279;26;20001;-69
2024/04/16 20:43:42;;;;;;;7.30;3.97;;;;;;;6.47;100.00;101147.16;11074913;26;20009;-69
2024/04/16 20:48:42;;;;;;;6.07;3.22;;;;;;;6.40;100.00;101146.16;11073010;26;20020;-69
2024/04/16 20:53:43;;;;;;;9.93;3.10;;;;;;;6.36;100.00;101144.81;11074193;26;20029;-68
2024/04/16 20:58:43;;;;;;;20.60;4.43;;;;;;;6.40;100.00;101151.53;11074356;26;19996;-69
2024/04/16 21:03:43;;;;;;;8.05;3.22;;;;;;;6.39;100.00;101150.69;11072348;26;20421;-68
2024/04/16 21:08:44;;;;;;;13.88;4.07;;;;;;;6.38;100.00;101150.84;11065620;26;20029;-69
2024/04/16 21:13:47;;;;;;;23.35;4.03;;;;;;;6.40;100.00;101155.06;11064589;26;20330;-69
2024/04/16 21:18:48;;;;;;;20.98;4.30;;;;;;;6.37;100.00;101144.63;11066559;26;19997;-68
2024/04/16 21:23:51;;;;;;;17.77;4.13;;;;;;;6.31;100.00;101153.34;11063486;26;20001;-68
2024/04/16 21:28:52;;;;;;;17.45;3.55;;;;;;;6.27;100.00;101150.16;11065046;26;19997;-68
2024/04/16 21:33:52;;;;;;;9.73;3.05;;;;;;;6.25;100.00;101157.56;11064182;26;20319;-68
2024/04/16 21:38:52;;;;;;;15.43;3.45;;;;;;;6.27;100.00;101160.06;11064673;26;20429;-68
2024/04/16 21:43:53;;;;;;;16.88;3.97;;;;;;;6.24;100.00;101171.97;11063636;26;19993;-68
2024/04/16 21:48:53;;;;;;;6.47;3.90;;;;;;;6.18;100.00;101177.16;11064730;26;20070;-68
2024/04/16 21:53:54;;;;;;;9.82;3.30;;;;;;;6.14;100.00;101184.72;11062350;26;20028;-68
2024/04/16 21:58:54;;;;;;;10.15;3.45;;;;;;;6.17;100.00;101181.72;11062798;26;20346;-68
2024/04/16 22:03:54;;;;;;;9.73;3.75;;;;;;;6.13;100.00;101176.84;11064372;26;20005;-68
2024/04/16 22:08:55;;;;;;;11.52;3.42;;;;;;;6.09;100.00;101178.97;11064297;26;20007;-68
2024/04/16 22:13:55;;;;;;;6.07;4.20;;;;;;;6.05;100.00;101177.63;11062327;26;20016;-68
2024/04/16 22:18:55;;;;;;;17.88;3.83;;;;;;;5.97;100.00;101181.13;11063817;26;19997;-68
2024/04/16 22:23:56;;;;;;;18.58;4.07;;;;;;;5.92;100.00;101185.25;11062226;26;20007;-68
2024/04/16 22:28:56;;;;;;;9.52;3.75;;;;;;;5.94;100.00;101185.97;11063246;26;20001;-69
2024/04/16 22:33:57;;;;;;;13.18;3.40;;;;;;;5.97;100.00;101194.56;11062848;26;20070;-68
2024/04/16 22:38:57;;;;;;;14.35;4.18;;;;;;;6.01;100.00;101200.47;11063118;26;19997;-68
2024/04/16 22:43:57;;;;;;;9.45;3.75;;;;;;;6.05;100.00;101199.97;11062881;26;20000;-68
2024/04/16 22:48:58;;;;;;;17.60;4.85;;;;;;;6.13;100.00;101207.25;11063171;26;20075;-68
2024/04/16 22:53:59;;;;;;;7.30;3.85;;;;;;;6.19;100.00;101211.13;11063840;26;19997;-68
2024/04/16 22:59:00;;;;;;;4.10;3.22;;;;;;;6.27;100.00;101214.69;11062856;26;20004;-68